createdAt,value
2018-12-11T00:00:19.579Z,6.10
2018-12-11T00:02:47.989Z,6.00
2018-12-11T00:05:16.362Z,6.00
2018-12-11T00:07:44.906Z,6.00
2018-12-11T00:10:13.310Z,6.00
2018-12-11T00:12:41.730Z,5.90
2018-12-11T00:15:10.410Z,5.90
2018-12-11T00:17:38.912Z,5.90
2018-12-11T00:20:07.484Z,5.80
2018-12-11T00:22:35.875Z,5.80
2018-12-11T00:25:04.600Z,5.80
2018-12-11T00:27:33.006Z,5.90
2018-12-11T00:30:01.403Z,5.90
2018-12-11T00:32:29.784Z,5.90
2018-12-11T00:34:58.194Z,6.00
2018-12-11T00:37:26.596Z,6.00
2018-12-11T00:39:55.003Z,6.00
2018-12-11T00:42:23.449Z,6.00
2018-12-11T00:44:51.881Z,6.10
2018-12-11T00:47:20.896Z,6.10
2018-12-11T00:49:49.499Z,6.10
2018-12-11T00:52:17.898Z,6.10
2018-12-11T00:54:46.308Z,6.00
2018-12-11T00:57:14.805Z,6.00
2018-12-11T00:59:43.185Z,6.00
2018-12-11T01:02:11.615Z,5.90
2018-12-11T01:04:40.029Z,5.90
2018-12-11T01:07:08.424Z,5.90
2018-12-11T01:09:36.805Z,5.90
2018-12-11T01:12:05.458Z,6.00
2018-12-11T01:14:33.867Z,6.10
2018-12-11T01:17:02.246Z,6.10
2018-12-11T01:19:30.630Z,6.10
2018-12-11T01:21:59.016Z,6.00
2018-12-11T01:24:27.440Z,6.00
2018-12-11T01:26:55.857Z,6.00
2018-12-11T01:29:24.263Z,6.00
2018-12-11T01:31:52.769Z,5.90
2018-12-11T01:34:21.162Z,5.80
2018-12-11T01:36:49.598Z,5.70
2018-12-11T01:39:17.991Z,5.70
2018-12-11T01:41:46.378Z,5.70
2018-12-11T01:44:14.903Z,5.60
2018-12-11T01:46:43.464Z,5.60
2018-12-11T01:49:11.875Z,5.60
2018-12-11T01:51:40.426Z,5.60
2018-12-11T01:54:08.822Z,5.50
2018-12-11T01:56:37.211Z,5.50
2018-12-11T01:59:05.735Z,5.40
2018-12-11T02:01:34.147Z,5.30
2018-12-11T02:04:02.597Z,5.30
2018-12-11T02:06:31.627Z,5.30
2018-12-11T02:09:00.128Z,5.40
2018-12-11T02:11:28.546Z,5.40
2018-12-11T02:13:56.964Z,5.30
2018-12-11T02:16:25.487Z,5.30
2018-12-11T02:18:53.903Z,5.30
2018-12-11T02:21:22.425Z,5.30
2018-12-11T02:23:50.847Z,5.30
2018-12-11T02:26:19.245Z,5.20
2018-12-11T02:28:47.636Z,5.20
2018-12-11T02:31:16.017Z,5.10
2018-12-11T02:33:44.418Z,5.10
2018-12-11T02:36:12.834Z,5.00
2018-12-11T02:38:41.458Z,5.00
2018-12-11T02:41:10.043Z,4.90
2018-12-11T02:43:38.449Z,4.80
2018-12-11T02:46:06.836Z,4.90
2018-12-11T02:48:35.264Z,4.90
2018-12-11T02:51:03.947Z,4.90
2018-12-11T02:53:32.352Z,4.90
2018-12-11T02:56:00.739Z,4.90
2018-12-11T02:58:29.122Z,4.90
2018-12-11T03:00:57.520Z,4.90
2018-12-11T03:03:25.927Z,4.90
2018-12-11T03:05:54.333Z,4.80
2018-12-11T03:08:22.755Z,4.80
2018-12-11T03:10:51.333Z,4.70
2018-12-11T03:13:19.716Z,4.80
2018-12-11T03:15:48.292Z,4.70
2018-12-11T03:18:16.710Z,4.70
2018-12-11T03:20:45.184Z,4.70
2018-12-11T03:23:13.704Z,4.70
2018-12-11T03:25:42.112Z,4.60
2018-12-11T03:28:10.536Z,4.60
2018-12-11T03:30:39.121Z,4.60
2018-12-11T03:33:07.630Z,4.70
2018-12-11T03:35:36.033Z,4.70
2018-12-11T03:38:04.540Z,4.70
2018-12-11T03:40:32.944Z,4.70
2018-12-11T03:43:01.335Z,4.70
2018-12-11T03:45:29.769Z,4.70
2018-12-11T03:47:58.180Z,4.70
2018-12-11T03:50:26.630Z,4.70
2018-12-11T03:52:55.036Z,4.70
2018-12-11T03:55:23.432Z,4.70
2018-12-11T03:57:51.932Z,4.60
2018-12-11T04:00:27.067Z,4.60
2018-12-11T04:02:55.476Z,4.60
2018-12-11T04:05:23.873Z,4.60
2018-12-11T04:07:52.265Z,4.50
2018-12-11T04:10:20.710Z,4.40
2018-12-11T04:12:49.115Z,4.40
2018-12-11T04:15:17.615Z,4.30
2018-12-11T04:17:46.214Z,4.30
2018-12-11T04:20:14.760Z,4.20
2018-12-11T04:22:43.253Z,4.10
2018-12-11T04:25:11.768Z,4.00
2018-12-11T04:27:40.191Z,4.00
2018-12-11T04:30:09.202Z,4.00
2018-12-11T04:32:37.591Z,4.10
2018-12-11T04:35:06.150Z,4.10
2018-12-11T04:37:34.541Z,4.20
2018-12-11T04:40:02.944Z,4.30
2018-12-11T04:42:31.402Z,4.30
2018-12-11T04:44:59.779Z,4.30
2018-12-11T04:47:28.210Z,4.40
2018-12-11T04:49:56.615Z,4.40
2018-12-11T04:52:25.016Z,4.40
2018-12-11T04:54:53.423Z,4.50
2018-12-11T04:57:21.805Z,4.50
2018-12-11T04:59:50.229Z,4.50
2018-12-11T05:02:18.719Z,4.50
2018-12-11T05:04:47.123Z,4.60
2018-12-11T05:07:15.508Z,4.70
2018-12-11T05:09:44.047Z,4.80
2018-12-11T05:12:12.460Z,4.80
2018-12-11T05:14:40.871Z,4.90
2018-12-11T05:17:09.275Z,4.90
2018-12-11T05:19:37.710Z,5.00
2018-12-11T05:22:06.237Z,5.00
2018-12-11T05:24:34.684Z,5.00
2018-12-11T05:27:03.214Z,5.00
2018-12-11T05:29:31.602Z,5.10
2018-12-11T05:32:00.121Z,5.10
2018-12-11T05:34:28.525Z,5.10
2018-12-11T05:36:57.312Z,5.10
2018-12-11T05:39:25.718Z,5.10
2018-12-11T05:41:54.114Z,5.10
2018-12-11T05:44:22.616Z,5.20
2018-12-11T05:46:51.177Z,5.20
2018-12-11T05:49:19.574Z,5.20
2018-12-11T05:51:47.988Z,5.30
2018-12-11T05:54:16.395Z,5.30
2018-12-11T05:56:44.820Z,5.30
2018-12-11T05:59:13.208Z,5.30
2018-12-11T06:01:41.763Z,5.30
2018-12-11T06:04:10.171Z,5.30
2018-12-11T06:06:38.661Z,5.30
2018-12-11T06:09:08.501Z,5.30
2018-12-11T06:11:36.922Z,5.30
2018-12-11T06:14:05.324Z,5.30
2018-12-11T06:16:33.941Z,5.40
2018-12-11T06:19:02.364Z,5.40
2018-12-11T06:21:30.793Z,5.40
2018-12-11T06:23:59.212Z,5.40
2018-12-11T06:26:27.676Z,5.40
2018-12-11T06:28:56.266Z,5.40
2018-12-11T06:31:24.704Z,5.40
2018-12-11T06:33:53.208Z,5.40
2018-12-11T06:36:21.742Z,5.40
2018-12-11T06:38:50.167Z,5.40
2018-12-11T06:41:18.566Z,5.40
2018-12-11T06:43:47.103Z,5.40
2018-12-11T06:46:15.475Z,5.40
2018-12-11T06:48:43.945Z,5.30
2018-12-11T06:51:12.360Z,5.30
2018-12-11T06:53:40.765Z,5.30
2018-12-11T06:56:09.170Z,5.30
2018-12-11T06:58:37.628Z,5.20
2018-12-11T07:01:06.146Z,5.10
2018-12-11T07:03:34.551Z,5.00
2018-12-11T07:06:03.012Z,4.90
2018-12-11T07:08:31.398Z,4.80
2018-12-11T07:10:59.807Z,4.70
2018-12-11T07:13:28.324Z,4.70
2018-12-11T07:15:56.746Z,4.70
2018-12-11T07:18:26.072Z,4.60
2018-12-11T07:20:54.720Z,4.60
2018-12-11T07:23:23.213Z,4.50
2018-12-11T07:25:51.670Z,4.40
2018-12-11T07:28:20.078Z,4.40
2018-12-11T07:30:48.495Z,4.30
2018-12-11T07:33:17.092Z,4.30
2018-12-11T07:35:45.550Z,4.20
2018-12-11T07:38:13.946Z,4.10
2018-12-11T07:40:42.446Z,4.10
2018-12-11T07:43:10.839Z,4.00
2018-12-11T07:45:39.244Z,4.00
2018-12-11T07:48:07.747Z,3.90
2018-12-11T07:50:36.142Z,3.80
2018-12-11T07:53:06.526Z,3.80
2018-12-11T07:55:35.220Z,3.80
2018-12-11T07:58:03.733Z,3.80
2018-12-11T08:00:32.359Z,3.80
2018-12-11T08:03:00.872Z,3.80
2018-12-11T08:05:29.272Z,3.80
2018-12-11T08:07:57.822Z,3.80
2018-12-11T08:10:26.259Z,3.90
2018-12-11T08:12:54.678Z,4.00
2018-12-11T08:15:23.178Z,4.00
2018-12-11T08:17:51.598Z,4.00
2018-12-11T08:20:20.009Z,4.00
2018-12-11T08:22:48.412Z,4.10
2018-12-11T08:25:16.809Z,4.20
2018-12-11T08:27:45.370Z,4.30
2018-12-11T08:30:13.783Z,4.30
2018-12-11T08:32:42.197Z,4.30
2018-12-11T08:35:10.590Z,4.30
2018-12-11T08:37:39.159Z,4.20
2018-12-11T08:40:07.694Z,4.20
2018-12-11T08:42:36.096Z,4.10
2018-12-11T08:45:05.250Z,4.10
2018-12-11T08:47:33.759Z,4.10
2018-12-11T08:50:02.213Z,4.20
2018-12-11T08:52:30.696Z,4.30
2018-12-11T08:54:59.264Z,4.50
2018-12-11T08:57:27.667Z,4.50
2018-12-11T08:59:56.128Z,4.50
2018-12-11T09:02:24.547Z,4.50
2018-12-11T09:04:52.999Z,4.60
2018-12-11T09:07:21.388Z,4.60
2018-12-11T09:09:50.015Z,4.70
2018-12-11T09:12:18.506Z,4.80
2018-12-11T09:14:46.885Z,5.00
2018-12-11T09:17:15.333Z,5.00
2018-12-11T09:19:43.793Z,5.10
2018-12-11T09:22:12.189Z,5.20
2018-12-11T09:24:40.600Z,5.40
2018-12-11T09:27:09.003Z,5.40
2018-12-11T09:29:37.455Z,5.40
2018-12-11T09:32:06.124Z,5.40
2018-12-11T09:34:34.521Z,5.40
2018-12-11T09:37:03.000Z,5.40
2018-12-11T09:39:31.447Z,5.40
2018-12-11T09:41:59.852Z,5.40
2018-12-11T09:44:28.272Z,5.40
2018-12-11T09:46:56.771Z,5.40
2018-12-11T09:49:25.536Z,5.50
2018-12-11T09:51:56.659Z,5.60
2018-12-11T09:54:25.120Z,5.70
2018-12-11T09:56:55.091Z,5.80
2018-12-11T09:59:23.767Z,5.80
2018-12-11T10:01:52.475Z,5.90
2018-12-11T10:04:20.898Z,6.00
2018-12-11T10:06:49.350Z,6.00
2018-12-11T10:09:17.884Z,6.00
2018-12-11T10:11:46.279Z,5.90
2018-12-11T10:14:14.691Z,6.00
2018-12-11T10:16:43.079Z,6.10
2018-12-11T10:19:11.680Z,6.20
2018-12-11T10:21:40.119Z,6.40
2018-12-11T10:24:08.614Z,6.60
2018-12-11T10:26:37.157Z,6.80
2018-12-11T10:29:06.017Z,7.10
2018-12-11T10:31:34.485Z,7.40
2018-12-11T10:34:02.959Z,7.50
2018-12-11T10:36:31.394Z,7.80
2018-12-11T10:38:59.907Z,8.00
2018-12-11T10:41:28.315Z,8.20
2018-12-11T10:43:56.787Z,8.50
2018-12-11T10:46:25.265Z,8.60
2018-12-11T10:48:55.107Z,8.60
2018-12-11T10:51:23.528Z,8.80
2018-12-11T10:53:52.017Z,9.10
2018-12-11T10:56:20.466Z,9.40
2018-12-11T10:58:48.869Z,9.50
2018-12-11T11:01:21.759Z,9.40
2018-12-11T11:03:50.182Z,9.20
2018-12-11T11:06:18.620Z,9.00
2018-12-11T11:08:47.025Z,8.90
2018-12-11T11:11:15.575Z,8.70
2018-12-11T11:13:44.204Z,8.80
2018-12-11T11:16:15.112Z,8.80
2018-12-11T11:18:44.828Z,8.90
2018-12-11T11:21:13.398Z,9.60
2018-12-11T11:23:41.991Z,10.60
2018-12-11T11:26:10.550Z,10.70
2018-12-11T11:28:39.148Z,10.40
2018-12-11T11:31:07.605Z,10.40
2018-12-11T11:33:36.105Z,10.20
2018-12-11T11:36:04.701Z,10.20
2018-12-11T11:38:33.104Z,10.00
2018-12-11T11:41:01.496Z,9.80
2018-12-11T11:43:30.005Z,9.90
2018-12-11T11:45:58.497Z,10.20
2018-12-11T11:48:26.957Z,10.40
2018-12-11T11:50:55.353Z,10.10
2018-12-11T11:53:23.769Z,10.30
2018-12-11T11:55:52.197Z,11.30
2018-12-11T11:58:20.608Z,12.60
2018-12-11T12:00:49.031Z,12.70
2018-12-11T12:03:17.446Z,13.30
2018-12-11T12:05:45.850Z,14.20
2018-12-11T12:08:14.290Z,14.90
2018-12-11T12:10:42.688Z,15.30
2018-12-11T12:13:11.112Z,15.40
2018-12-11T12:15:39.551Z,15.60
2018-12-11T12:18:07.963Z,15.90
2018-12-11T12:20:36.360Z,15.90
2018-12-11T12:23:04.757Z,15.90
2018-12-11T12:25:33.155Z,15.80
2018-12-11T12:28:01.588Z,16.00
2018-12-11T12:30:30.502Z,16.30
2018-12-11T12:32:59.006Z,16.30
2018-12-11T12:35:27.432Z,16.00
2018-12-11T12:37:55.856Z,15.90
2018-12-11T12:40:24.579Z,16.10
2018-12-11T12:42:52.998Z,16.00
2018-12-11T12:45:21.430Z,16.20
2018-12-11T12:47:49.835Z,16.50
2018-12-11T12:50:18.267Z,16.50
2018-12-11T12:52:46.655Z,16.70
2018-12-11T12:55:15.123Z,16.60
2018-12-11T12:57:43.591Z,16.40
2018-12-11T13:13:53.323Z,16.40
2018-12-11T13:16:21.724Z,16.50
2018-12-11T13:18:50.118Z,16.70
2018-12-11T13:21:18.539Z,16.80
2018-12-11T13:23:46.949Z,16.80
2018-12-11T13:26:15.355Z,16.90
2018-12-11T13:28:43.772Z,16.80
2018-12-11T13:31:12.172Z,16.60
2018-12-11T13:33:40.567Z,16.60
2018-12-11T13:36:08.993Z,16.40
2018-12-11T13:38:37.450Z,16.30
2018-12-11T13:41:05.956Z,15.70
2018-12-11T13:43:34.706Z,15.00
2018-12-11T13:46:03.087Z,15.00
2018-12-11T13:48:31.813Z,14.90
2018-12-11T13:51:00.349Z,15.00
2018-12-11T13:53:28.754Z,14.70
2018-12-11T13:55:57.153Z,13.60
2018-12-11T13:58:25.566Z,12.80
2018-12-11T14:00:53.961Z,12.30
2018-12-11T14:03:22.377Z,11.60
2018-12-11T14:05:50.791Z,11.00
2018-12-11T14:08:19.181Z,10.70
2018-12-11T14:10:47.620Z,10.40
2018-12-11T14:13:16.059Z,10.30
2018-12-11T14:15:44.453Z,10.10
2018-12-11T14:18:12.847Z,10.10
2018-12-11T14:20:41.232Z,10.00
2018-12-11T14:23:09.619Z,10.00
2018-12-11T14:25:38.249Z,9.90
2018-12-11T14:28:06.633Z,9.70
2018-12-11T14:30:35.153Z,9.60
2018-12-11T14:33:03.541Z,9.50
2018-12-11T14:35:31.938Z,9.40
2018-12-11T14:38:00.472Z,9.30
2018-12-11T14:40:28.920Z,9.20
2018-12-11T14:42:57.314Z,9.20
2018-12-11T14:45:25.730Z,9.20
2018-12-11T14:47:54.140Z,9.30
2018-12-11T14:50:22.639Z,9.20
2018-12-11T14:52:51.160Z,9.20
2018-12-11T14:55:19.577Z,9.10
2018-12-11T14:57:48.014Z,9.00
2018-12-11T15:00:16.673Z,8.90
2018-12-11T15:02:45.480Z,8.80
2018-12-11T15:05:14.004Z,8.90
2018-12-11T15:07:42.633Z,8.80
2018-12-11T15:10:12.220Z,8.70
2018-12-11T15:12:40.932Z,8.70
2018-12-11T15:15:10.428Z,8.70
2018-12-11T15:17:38.825Z,8.80
2018-12-11T15:20:08.822Z,8.90
2018-12-11T15:22:37.446Z,8.80
2018-12-11T15:25:06.344Z,8.70
2018-12-11T15:27:34.779Z,8.50
2018-12-11T15:30:03.340Z,8.40
2018-12-11T15:32:31.738Z,8.30
2018-12-11T15:35:00.216Z,8.20
2018-12-11T15:37:28.635Z,8.10
2018-12-11T15:39:57.085Z,8.00
2018-12-11T15:42:25.573Z,7.90
2018-12-11T15:44:53.997Z,7.80
2018-12-11T15:47:22.480Z,7.70
2018-12-11T15:49:51.016Z,7.60
2018-12-11T15:52:19.423Z,7.50
2018-12-11T15:54:47.858Z,7.50
2018-12-11T15:57:16.300Z,7.50
2018-12-11T15:59:44.709Z,7.50
2018-12-11T16:02:13.228Z,7.50
2018-12-11T16:04:41.642Z,7.50
2018-12-11T16:07:10.129Z,7.50
2018-12-11T16:09:38.640Z,7.40
2018-12-11T16:12:07.490Z,7.40
2018-12-11T16:14:35.995Z,7.30
2018-12-11T16:17:04.415Z,7.10
2018-12-11T16:19:32.836Z,7.00
2018-12-11T16:22:01.258Z,6.80
2018-12-11T16:24:29.638Z,6.70
2018-12-11T16:26:58.075Z,6.60
2018-12-11T16:29:26.498Z,6.50
2018-12-11T16:31:55.011Z,6.50
2018-12-11T16:34:23.494Z,6.50
2018-12-11T16:36:52.008Z,6.40
2018-12-11T16:39:20.418Z,6.40
2018-12-11T16:41:48.864Z,6.40
2018-12-11T16:44:17.358Z,6.40
2018-12-11T16:46:47.123Z,6.40
2018-12-11T16:49:15.584Z,6.50
2018-12-11T16:51:44.028Z,6.60
2018-12-11T16:54:12.528Z,6.70
2018-12-11T16:56:41.042Z,6.80
2018-12-11T16:59:09.579Z,6.90
2018-12-11T17:01:38.188Z,6.90
2018-12-11T17:04:06.644Z,7.00
2018-12-11T17:06:35.043Z,7.10
2018-12-11T17:09:05.104Z,7.20
2018-12-11T17:11:33.505Z,7.30
2018-12-11T17:14:01.924Z,7.50
2018-12-11T17:16:30.343Z,7.40
2018-12-11T17:18:58.859Z,7.40
2018-12-11T17:21:27.257Z,7.40
2018-12-11T17:23:55.666Z,7.50
2018-12-11T17:26:24.100Z,7.50
2018-12-11T17:28:52.511Z,7.50
2018-12-11T17:31:21.038Z,7.50
2018-12-11T17:33:49.471Z,7.50
2018-12-11T17:36:17.923Z,7.50
2018-12-11T17:38:46.397Z,7.40
2018-12-11T17:41:14.829Z,7.40
2018-12-11T17:43:43.224Z,7.40
2018-12-11T17:46:11.659Z,7.40
2018-12-11T17:48:41.690Z,7.40
2018-12-11T17:51:10.639Z,7.30
2018-12-11T17:53:39.185Z,7.40
2018-12-11T17:56:07.603Z,7.40
2018-12-11T17:58:36.052Z,7.40
2018-12-11T18:01:05.003Z,7.40
2018-12-11T18:03:33.737Z,7.40
2018-12-11T18:08:42.175Z,7.40
2018-12-11T18:11:10.628Z,7.30
2018-12-11T18:13:39.014Z,7.40
2018-12-11T18:16:07.680Z,7.30
2018-12-11T18:18:36.211Z,7.30
2018-12-11T18:21:05.348Z,7.30
2018-12-11T18:23:33.812Z,7.30
2018-12-11T18:26:02.236Z,7.30
2018-12-11T18:28:30.637Z,7.20
2018-12-11T18:30:59.087Z,7.10
2018-12-11T18:33:27.575Z,7.10
2018-12-11T18:35:56.050Z,7.00
2018-12-11T18:38:25.003Z,6.90
2018-12-11T18:40:53.516Z,6.80
2018-12-11T18:43:21.966Z,6.80
2018-12-11T18:45:50.364Z,6.70
2018-12-11T18:48:19.245Z,6.70
2018-12-11T18:50:47.775Z,6.70
2018-12-11T18:53:16.577Z,6.70
2018-12-11T18:55:45.015Z,6.70
2018-12-11T18:58:13.573Z,6.70
2018-12-11T19:00:42.084Z,6.70
2018-12-11T19:03:10.526Z,6.70
2018-12-11T19:05:39.044Z,6.60
2018-12-11T19:08:07.584Z,6.40
2018-12-11T19:10:36.033Z,6.30
2018-12-11T19:13:04.936Z,6.20
2018-12-11T19:15:33.389Z,6.00
2018-12-11T19:18:01.787Z,5.90
2018-12-11T19:20:30.206Z,5.80
2018-12-11T19:23:06.956Z,5.70
2018-12-11T19:25:35.397Z,5.60
2018-12-11T19:28:03.984Z,5.60
2018-12-11T19:30:32.436Z,5.50
2018-12-11T19:33:00.905Z,5.60
2018-12-11T19:35:33.048Z,5.60
2018-12-11T19:37:59.781Z,5.50
2018-12-11T19:40:28.215Z,5.40
2018-12-11T19:42:56.704Z,5.40
2018-12-11T19:45:25.126Z,5.40
2018-12-11T19:47:53.627Z,5.40
2018-12-11T19:50:22.360Z,5.40
2018-12-11T19:52:50.803Z,5.50
2018-12-11T19:55:19.260Z,5.50
2018-12-11T19:57:47.700Z,5.40
2018-12-11T20:00:16.160Z,5.40
2018-12-11T20:02:44.589Z,5.40
2018-12-11T20:05:13.225Z,5.30
2018-12-11T20:07:41.739Z,5.30
2018-12-11T20:10:15.689Z,5.20
2018-12-11T20:12:44.585Z,5.20
2018-12-11T20:15:13.232Z,5.10
2018-12-11T20:17:41.761Z,5.20
2018-12-11T20:20:19.097Z,5.20
2018-12-11T20:22:47.523Z,5.20
2018-12-11T20:25:15.949Z,5.20
2018-12-11T20:27:44.473Z,5.30
2018-12-11T20:30:13.069Z,5.30
2018-12-11T20:32:41.507Z,5.30
2018-12-11T20:35:09.966Z,5.30
2018-12-11T20:37:38.371Z,5.40
2018-12-11T20:40:07.401Z,5.40
2018-12-11T20:42:35.854Z,5.50
2018-12-11T20:45:05.475Z,5.60
2018-12-11T20:47:34.045Z,5.70
2018-12-11T20:50:02.489Z,5.70
2018-12-11T20:52:30.907Z,5.70
2018-12-11T20:54:59.388Z,5.60
2018-12-11T20:57:27.868Z,5.60
2018-12-11T20:59:56.361Z,5.60
2018-12-11T21:02:24.772Z,5.70
2018-12-11T21:04:53.205Z,5.90
2018-12-11T21:07:21.700Z,6.20
2018-12-11T21:09:50.118Z,6.30
2018-12-11T21:12:18.630Z,6.40
2018-12-11T21:14:47.175Z,6.50
2018-12-11T21:17:15.592Z,6.50
2018-12-11T21:19:44.042Z,6.50
2018-12-11T21:22:12.561Z,6.50
2018-12-11T21:24:41.138Z,6.50
2018-12-11T21:27:09.781Z,6.50
2018-12-11T21:29:38.330Z,6.60
2018-12-11T21:32:06.897Z,6.60
2018-12-11T21:34:35.411Z,6.60
2018-12-11T21:37:05.436Z,6.70
2018-12-11T21:39:33.983Z,6.70
2018-12-11T21:42:02.405Z,6.70
2018-12-11T21:44:30.811Z,6.70
2018-12-11T21:46:59.323Z,6.70
2018-12-11T21:49:27.898Z,6.70
2018-12-11T21:51:56.361Z,6.60
2018-12-11T21:54:24.846Z,6.60
2018-12-11T21:56:53.277Z,6.60
2018-12-11T21:59:21.818Z,6.60
2018-12-11T22:01:50.300Z,6.60
2018-12-11T22:04:18.765Z,6.60
2018-12-11T22:06:47.182Z,6.50
2018-12-11T22:09:15.609Z,6.40
2018-12-11T22:11:44.101Z,6.40
2018-12-11T22:14:12.506Z,6.40
2018-12-11T22:16:41.062Z,6.30
2018-12-11T22:19:09.593Z,6.30
2018-12-11T22:21:38.128Z,6.30
2018-12-11T22:24:06.573Z,6.30
2018-12-11T22:26:35.092Z,6.20
2018-12-11T22:29:03.570Z,6.20
2018-12-11T22:31:32.270Z,6.20
2018-12-11T22:34:00.674Z,6.10
2018-12-11T22:36:29.087Z,6.10
2018-12-11T22:38:57.490Z,6.00
2018-12-11T22:41:26.035Z,6.00
2018-12-11T22:43:54.482Z,5.90
2018-12-11T22:46:23.144Z,5.90
2018-12-11T22:48:51.757Z,5.90
2018-12-11T22:51:21.193Z,5.90
2018-12-11T22:53:49.663Z,5.90
2018-12-11T22:56:18.152Z,5.90
2018-12-11T22:58:46.595Z,6.00
2018-12-11T23:01:15.096Z,6.00
2018-12-11T23:03:43.519Z,6.00
2018-12-11T23:06:12.025Z,6.10
2018-12-11T23:08:40.455Z,6.20
2018-12-11T23:11:08.862Z,6.20
2018-12-11T23:13:37.304Z,6.20
2018-12-11T23:16:05.967Z,6.20
2018-12-11T23:18:34.352Z,6.10
2018-12-11T23:21:02.805Z,6.00
2018-12-11T23:23:31.544Z,6.00
2018-12-11T23:25:59.949Z,6.00
2018-12-11T23:28:28.332Z,6.00
2018-12-11T23:30:56.778Z,6.00
2018-12-11T23:33:25.490Z,6.00
2018-12-11T23:35:54.072Z,6.00
2018-12-11T23:38:22.556Z,6.00
2018-12-11T23:40:50.960Z,6.00
2018-12-11T23:43:19.489Z,6.00
2018-12-11T23:45:47.883Z,6.00
2018-12-11T23:48:16.294Z,6.00
2018-12-11T23:50:44.931Z,6.00
2018-12-11T23:53:13.420Z,6.00
2018-12-11T23:55:41.821Z,5.90
2018-12-11T23:58:10.238Z,5.90
